Terminal Aerodrome Forecast
Issued by NWS Bismarck, ND

Home | Current Version | Previous Version | Graphics & Text | Print | Product List | Glossary On
Versions: 1 2 3 4 5 6 7 8 9 10 11 12 13 14 15 16 17 18 19 20 21 22 23 24 25 26 27
000
FTUS43 KBIS 271100
TAFBIS
TAF
KBIS 271131Z 2712/2812 00000KT 1/4SM FG VV002
     FM271400 15003KT 3SM BR SCT005
     FM271600 16007KT P6SM FEW045
     FM280500 14004KT P6SM SCT025 OVC040=

USA.gov is the U.S. government's official web portal to all federal, state and local government web resources and services.